createdAt,value
2024-03-03T00:00:51.224Z,20.87
2024-03-03T00:03:20.369Z,22.40
2024-03-03T00:05:49.982Z,21.70
2024-03-03T00:08:16.854Z,21.67
2024-03-03T00:10:44.100Z,19.63
2024-03-03T00:13:10.966Z,22.80
2024-03-03T00:15:37.846Z,24.67
2024-03-03T00:18:05.025Z,22.90
2024-03-03T00:20:31.935Z,19.50
2024-03-03T00:23:01.366Z,25.30
2024-03-03T00:25:28.318Z,22.60
2024-03-03T00:27:55.218Z,25.90
2024-03-03T00:30:24.440Z,23.63
2024-03-03T00:32:51.306Z,20.53
2024-03-03T00:35:18.150Z,23.20
2024-03-03T00:37:47.273Z,21.43
2024-03-03T00:40:17.293Z,24.70
2024-03-03T00:42:46.537Z,21.13
2024-03-03T00:45:13.478Z,24.47
2024-03-03T00:47:41.414Z,26.57
2024-03-03T00:50:13.263Z,26.30
2024-03-03T00:52:40.090Z,22.63
2024-03-03T00:55:07.267Z,21.90
2024-03-03T00:57:36.397Z,23.73
2024-03-03T01:00:04.112Z,23.37
2024-03-03T01:02:31.033Z,24.80
2024-03-03T01:05:00.041Z,18.67
2024-03-03T01:07:26.965Z,26.70
2024-03-03T01:09:54.098Z,21.13
2024-03-03T01:12:21.092Z,19.20
2024-03-03T01:14:47.896Z,22.67
2024-03-03T01:17:14.889Z,22.77
2024-03-03T01:19:42.122Z,23.47
2024-03-03T01:22:09.293Z,23.50
2024-03-03T01:24:36.273Z,22.90
2024-03-03T01:27:03.878Z,23.77
2024-03-03T01:29:33.261Z,22.33
2024-03-03T01:32:00.136Z,22.07
2024-03-03T01:34:29.443Z,24.60
2024-03-03T01:36:56.315Z,23.30
2024-03-03T01:39:25.483Z,22.97
2024-03-03T01:41:52.525Z,21.50
2024-03-03T01:44:22.802Z,21.17
2024-03-03T01:46:49.922Z,21.10
2024-03-03T01:49:18.356Z,16.70
2024-03-03T01:51:46.292Z,18.20
2024-03-03T01:54:13.636Z,16.73
2024-03-03T01:56:45.024Z,21.90
2024-03-03T01:59:12.331Z,16.90
2024-03-03T02:01:40.075Z,17.87
2024-03-03T02:04:08.943Z,23.47
2024-03-03T02:06:36.381Z,18.97
2024-03-03T02:09:03.770Z,18.07
2024-03-03T02:11:30.968Z,16.37
2024-03-03T02:13:59.193Z,15.30
2024-03-03T02:16:26.463Z,19.37
2024-03-03T02:18:53.464Z,21.53
2024-03-03T02:21:27.785Z,18.20
2024-03-03T02:23:54.643Z,19.00
2024-03-03T02:26:23.331Z,19.53
2024-03-03T02:28:55.153Z,15.00
2024-03-03T02:31:22.862Z,17.10
2024-03-03T02:33:49.837Z,14.67
2024-03-03T02:36:18.948Z,17.20
2024-03-03T02:38:52.194Z,16.97
2024-03-03T02:41:19.173Z,15.67
2024-03-03T02:43:46.030Z,17.50
2024-03-03T02:46:15.074Z,15.20
2024-03-03T02:48:42.477Z,14.77
2024-03-03T02:51:11.920Z,14.37
2024-03-03T02:53:44.334Z,17.97
2024-03-03T02:56:11.175Z,16.13
2024-03-03T02:58:38.057Z,17.70
2024-03-03T03:01:05.199Z,17.23
2024-03-03T03:03:32.600Z,18.70
2024-03-03T03:05:59.700Z,19.20
2024-03-03T03:08:26.822Z,20.87
2024-03-03T03:10:55.493Z,16.77
2024-03-03T03:13:22.392Z,20.83
2024-03-03T03:15:49.280Z,16.93
2024-03-03T03:18:16.474Z,20.10
2024-03-03T03:20:43.534Z,16.13
2024-03-03T03:23:10.860Z,15.50
2024-03-03T03:25:37.730Z,12.20
2024-03-03T03:28:04.908Z,11.57
2024-03-03T03:30:31.799Z,14.93
2024-03-03T03:32:58.702Z,15.00
2024-03-03T03:35:26.212Z,15.60
2024-03-03T03:37:53.076Z,11.63
2024-03-03T03:40:20.074Z,15.03
2024-03-03T03:42:47.043Z,16.43
2024-03-03T03:45:16.140Z,16.70
2024-03-03T03:47:43.057Z,14.87
2024-03-03T03:50:10.239Z,15.00
2024-03-03T03:52:37.034Z,16.30
2024-03-03T03:55:04.173Z,13.07
2024-03-03T03:57:33.374Z,16.87
2024-03-03T04:00:01.369Z,17.07
2024-03-03T04:02:29.120Z,15.33
2024-03-03T04:04:58.650Z,13.60
2024-03-03T04:07:25.509Z,14.13
2024-03-03T04:09:54.557Z,16.17
2024-03-03T04:12:21.408Z,15.00
2024-03-03T04:14:48.563Z,17.30
2024-03-03T04:17:15.380Z,14.90
2024-03-03T04:19:42.260Z,13.37
2024-03-03T04:22:09.291Z,16.60
2024-03-03T04:24:36.162Z,14.77
2024-03-03T04:27:04.743Z,14.87
2024-03-03T04:29:31.781Z,16.50
2024-03-03T04:31:58.616Z,11.10
2024-03-03T04:34:28.548Z,12.93
2024-03-03T04:36:55.526Z,12.60
2024-03-03T04:39:22.441Z,11.40
2024-03-03T04:41:49.337Z,11.80
2024-03-03T04:44:16.224Z,14.83
2024-03-03T04:46:42.981Z,13.20
2024-03-03T04:49:09.936Z,17.27
2024-03-03T04:51:36.784Z,14.73
2024-03-03T04:54:03.772Z,12.70
2024-03-03T04:56:30.599Z,13.43
2024-03-03T04:58:57.575Z,13.07
2024-03-03T05:01:27.840Z,16.13
2024-03-03T05:03:57.663Z,13.77
2024-03-03T05:06:24.545Z,12.70
2024-03-03T05:08:51.398Z,15.17
2024-03-03T05:11:18.289Z,16.07
2024-03-03T05:13:45.231Z,12.83
2024-03-03T05:16:13.255Z,13.70
2024-03-03T05:18:40.208Z,15.27
2024-03-03T05:21:07.050Z,11.70
2024-03-03T05:23:33.932Z,13.37
2024-03-03T05:26:00.941Z,12.27
2024-03-03T05:28:28.808Z,13.37
2024-03-03T05:30:55.746Z,12.57
2024-03-03T05:33:22.689Z,14.27
2024-03-03T05:35:49.528Z,16.50
2024-03-03T05:38:16.573Z,13.20
2024-03-03T05:40:43.474Z,13.30
2024-03-03T05:43:15.146Z,14.03
2024-03-03T05:45:42.189Z,12.17
2024-03-03T05:48:09.284Z,13.03
2024-03-03T05:50:38.274Z,13.70
2024-03-03T05:53:05.278Z,12.60
2024-03-03T05:55:34.902Z,12.80
2024-03-03T05:58:01.719Z,12.97
2024-03-03T06:00:28.817Z,9.97
2024-03-03T06:02:55.689Z,10.77
2024-03-03T06:05:22.539Z,12.57
2024-03-03T06:07:49.352Z,17.40
2024-03-03T06:10:16.338Z,12.37
2024-03-03T06:12:43.205Z,12.97
2024-03-03T06:15:12.360Z,14.57
2024-03-03T06:17:40.261Z,17.00
2024-03-03T06:20:08.328Z,15.73
2024-03-03T06:22:35.248Z,14.23
2024-03-03T06:25:02.193Z,12.03
2024-03-03T06:27:31.792Z,13.10
2024-03-03T06:30:00.953Z,11.07
2024-03-03T06:32:27.987Z,15.87
2024-03-03T06:34:56.912Z,8.97
2024-03-03T06:37:23.803Z,11.43
2024-03-03T06:39:52.789Z,11.70
2024-03-03T06:42:21.831Z,15.37
2024-03-03T06:44:48.706Z,11.40
2024-03-03T06:47:17.803Z,11.57
2024-03-03T06:49:50.057Z,14.17
2024-03-03T06:52:16.988Z,11.60
2024-03-03T06:54:43.864Z,13.23
2024-03-03T06:57:10.708Z,17.23
2024-03-03T06:59:39.582Z,13.90
2024-03-03T07:02:07.488Z,10.73
2024-03-03T07:04:34.956Z,11.10
2024-03-03T07:07:04.065Z,11.70
2024-03-03T07:09:31.176Z,12.43
2024-03-03T07:11:59.317Z,13.33
2024-03-03T07:14:27.603Z,14.00
2024-03-03T07:16:56.862Z,10.63
2024-03-03T07:19:23.919Z,13.00
2024-03-03T07:21:53.091Z,11.00
2024-03-03T07:24:20.388Z,10.30
2024-03-03T07:26:52.133Z,9.03
2024-03-03T07:29:19.147Z,11.40
2024-03-03T07:31:46.028Z,12.77
2024-03-03T07:34:13.024Z,17.00
2024-03-03T07:36:39.915Z,15.07
2024-03-03T07:39:09.195Z,11.83
2024-03-03T07:41:36.084Z,12.13
2024-03-03T07:44:08.059Z,10.77
2024-03-03T07:46:36.844Z,21.30
2024-03-03T07:49:06.778Z,10.13
2024-03-03T07:51:33.665Z,9.27
2024-03-03T07:54:00.613Z,11.50
2024-03-03T07:56:27.878Z,11.33
2024-03-03T07:58:54.776Z,9.30
2024-03-03T08:01:24.045Z,8.27
2024-03-03T08:03:53.110Z,9.07
2024-03-03T08:06:20.057Z,10.70
2024-03-03T08:08:46.950Z,7.53
2024-03-03T08:11:13.953Z,7.80
2024-03-03T08:13:40.829Z,8.83
2024-03-03T08:16:10.524Z,7.10
2024-03-03T08:18:39.804Z,6.57
2024-03-03T08:21:06.750Z,8.50
2024-03-03T08:23:33.873Z,7.50
2024-03-03T08:26:02.806Z,8.10
2024-03-03T08:28:29.781Z,16.10
2024-03-03T08:30:59.656Z,5.33
2024-03-03T08:33:28.309Z,8.90
2024-03-03T08:35:55.209Z,8.17
2024-03-03T08:38:22.127Z,5.73
2024-03-03T08:40:48.966Z,8.40
2024-03-03T08:43:15.802Z,6.50
2024-03-03T08:45:44.896Z,6.53
2024-03-03T08:48:11.815Z,8.70
2024-03-03T08:50:38.739Z,7.23
2024-03-03T08:53:06.780Z,5.50
2024-03-03T08:55:33.724Z,5.13
2024-03-03T08:58:00.671Z,5.87
2024-03-03T09:00:27.523Z,8.17
2024-03-03T09:02:54.330Z,4.47
2024-03-03T09:05:21.501Z,4.23
2024-03-03T09:07:51.480Z,4.47
2024-03-03T09:10:18.427Z,9.30
2024-03-03T09:12:47.499Z,4.80
2024-03-03T09:15:16.778Z,4.50
2024-03-03T09:17:43.980Z,6.83
2024-03-03T09:20:11.373Z,4.40
2024-03-03T09:22:38.564Z,6.00
2024-03-03T09:25:09.014Z,6.33
2024-03-03T09:27:37.084Z,4.10
2024-03-03T09:30:06.655Z,3.53
2024-03-03T09:32:35.199Z,4.07
2024-03-03T09:35:02.183Z,4.00
2024-03-03T09:37:29.136Z,4.93
2024-03-03T09:39:58.005Z,5.33
2024-03-03T09:42:25.466Z,7.00
2024-03-03T09:44:53.398Z,6.30
2024-03-03T09:47:21.895Z,8.53
2024-03-03T09:49:48.831Z,6.40
2024-03-03T09:52:16.312Z,6.40
2024-03-03T09:54:43.676Z,4.93
2024-03-03T09:57:14.033Z,4.90
2024-03-03T09:59:41.934Z,5.50
2024-03-03T10:02:16.960Z,6.50
2024-03-03T10:04:46.728Z,4.50
2024-03-03T10:07:32.513Z,5.33
2024-03-03T10:10:06.415Z,4.07
2024-03-03T10:12:37.153Z,3.90
2024-03-03T10:15:06.314Z,3.03
2024-03-03T10:17:33.285Z,4.00
2024-03-03T10:20:07.609Z,4.60
2024-03-03T10:22:35.852Z,3.40
2024-03-03T10:25:14.694Z,3.60
2024-03-03T10:27:44.182Z,2.93
2024-03-03T10:30:13.647Z,2.33
2024-03-03T10:32:40.988Z,1.70
2024-03-03T10:35:12.876Z,2.50
2024-03-03T10:37:54.261Z,2.03
2024-03-03T10:40:23.079Z,3.60
2024-03-03T10:42:50.470Z,1.50
2024-03-03T10:45:17.840Z,2.00
2024-03-03T10:47:44.887Z,1.70
2024-03-03T10:50:19.159Z,2.03
2024-03-03T10:52:46.609Z,1.53
2024-03-03T10:55:15.218Z,1.73
2024-03-03T10:57:45.438Z,1.90
2024-03-03T11:00:26.561Z,1.70
2024-03-03T11:02:56.243Z,2.13
2024-03-03T11:05:24.415Z,2.53
2024-03-03T11:07:51.740Z,1.80
2024-03-03T11:10:21.324Z,1.60
2024-03-03T11:12:52.756Z,2.40
2024-03-03T11:15:23.052Z,1.57
2024-03-03T11:18:01.725Z,1.37
2024-03-03T11:20:40.658Z,2.03
2024-03-03T11:23:21.959Z,1.40
2024-03-03T11:26:07.947Z,1.40
2024-03-03T11:28:35.842Z,3.80
2024-03-03T11:31:03.121Z,1.00
2024-03-03T11:33:34.269Z,1.00
2024-03-03T11:36:08.513Z,1.07
2024-03-03T11:38:44.718Z,0.90
2024-03-03T11:41:16.844Z,1.77
2024-03-03T11:43:44.675Z,0.80
2024-03-03T11:46:14.805Z,1.77
2024-03-03T11:48:47.799Z,1.20
2024-03-03T11:51:26.173Z,1.30
2024-03-03T11:54:05.267Z,1.20
2024-03-03T11:56:44.314Z,1.30
2024-03-03T11:59:11.158Z,2.00
2024-03-03T12:01:43.977Z,2.30
2024-03-03T12:04:13.253Z,1.93
2024-03-03T12:06:44.042Z,1.80
2024-03-03T12:09:16.989Z,1.30
2024-03-03T12:11:46.594Z,1.00
2024-03-03T12:14:13.527Z,1.20
2024-03-03T12:16:43.314Z,1.30
2024-03-03T12:19:15.088Z,1.20
2024-03-03T12:21:45.511Z,0.80
2024-03-03T12:24:16.429Z,1.10
2024-03-03T12:26:43.783Z,1.27
2024-03-03T12:29:13.116Z,1.97
2024-03-03T12:31:40.710Z,1.57
2024-03-03T12:34:08.028Z,4.10
2024-03-03T12:36:35.310Z,1.67
2024-03-03T12:39:17.989Z,2.23
2024-03-03T12:41:50.225Z,1.37
2024-03-03T12:44:24.993Z,2.40
2024-03-03T12:46:56.276Z,1.53
2024-03-03T12:49:23.260Z,1.57
2024-03-03T12:51:58.160Z,1.90
2024-03-03T12:54:25.048Z,2.60
2024-03-03T12:56:54.350Z,1.33
2024-03-03T12:59:27.970Z,3.73
2024-03-03T13:01:57.190Z,2.53
2024-03-03T13:04:31.527Z,2.87
2024-03-03T13:07:04.621Z,1.27
2024-03-03T13:09:31.769Z,3.43
2024-03-03T13:12:00.885Z,2.80
2024-03-03T13:14:33.664Z,3.90
2024-03-03T13:17:04.280Z,1.10
2024-03-03T13:19:46.462Z,3.43
2024-03-03T13:22:13.989Z,1.30
2024-03-03T13:25:02.182Z,1.50
2024-03-03T13:27:31.713Z,2.67
2024-03-03T13:30:06.380Z,1.67
2024-03-03T13:32:36.011Z,1.37
2024-03-03T13:35:07.642Z,1.50
2024-03-03T13:37:37.009Z,1.30
2024-03-03T13:40:09.374Z,1.43
2024-03-03T13:42:38.494Z,4.93
2024-03-03T13:45:07.505Z,2.73
2024-03-03T13:47:37.640Z,1.80
2024-03-03T13:50:04.871Z,5.37
2024-03-03T13:52:34.024Z,1.80
2024-03-03T13:55:04.036Z,3.73
2024-03-03T13:57:35.629Z,2.00
2024-03-03T14:00:15.808Z,2.77
2024-03-03T14:02:45.684Z,1.47
2024-03-03T14:05:17.592Z,2.40
2024-03-03T14:07:45.514Z,2.20
2024-03-03T14:10:15.298Z,3.40
2024-03-03T14:12:42.126Z,7.60
2024-03-03T14:15:09.387Z,0.90
2024-03-03T14:17:41.073Z,1.40
2024-03-03T14:20:08.486Z,1.70
2024-03-03T14:22:37.453Z,3.23
2024-03-03T14:25:05.767Z,1.13
2024-03-03T14:27:35.484Z,0.80
2024-03-03T14:30:06.322Z,2.97
2024-03-03T14:32:36.169Z,1.87
2024-03-03T14:35:10.141Z,3.40
2024-03-03T14:37:39.497Z,0.80
2024-03-03T14:40:10.275Z,1.13
2024-03-03T14:42:37.193Z,1.33
2024-03-03T14:45:04.336Z,1.00
2024-03-03T14:47:31.253Z,1.20
2024-03-03T14:50:02.859Z,1.43
2024-03-03T14:52:32.442Z,4.20
2024-03-03T14:54:59.350Z,0.80
2024-03-03T14:57:28.774Z,1.13
2024-03-03T14:59:57.892Z,1.40
2024-03-03T15:02:24.715Z,2.70
2024-03-03T15:04:54.091Z,2.60
2024-03-03T15:07:25.813Z,1.43
2024-03-03T15:09:55.598Z,1.70
2024-03-03T15:12:23.168Z,0.70
2024-03-03T15:14:52.301Z,3.13
2024-03-03T15:17:23.311Z,1.10
2024-03-03T15:19:55.437Z,1.87
2024-03-03T15:22:27.220Z,4.33
2024-03-03T15:24:54.454Z,1.37
2024-03-03T15:27:23.974Z,0.90
2024-03-03T15:29:53.254Z,1.20
2024-03-03T15:32:22.848Z,2.30
2024-03-03T15:34:54.175Z,0.90
2024-03-03T15:37:21.333Z,0.70
2024-03-03T15:39:53.062Z,1.10
2024-03-03T15:42:20.380Z,2.80
2024-03-03T15:44:47.194Z,2.20
2024-03-03T15:47:15.412Z,5.20
2024-03-03T15:49:44.641Z,1.47
2024-03-03T15:52:13.889Z,1.97
2024-03-03T15:54:45.522Z,1.60
2024-03-03T15:57:12.439Z,1.27
2024-03-03T15:59:39.336Z,1.00
2024-03-03T16:02:06.657Z,1.13
2024-03-03T16:04:36.567Z,1.37
2024-03-03T16:07:05.938Z,7.10
2024-03-03T16:09:38.669Z,1.60
2024-03-03T16:12:11.206Z,1.20
2024-03-03T16:14:40.548Z,3.60
2024-03-03T16:17:07.463Z,1.20
2024-03-03T16:19:34.646Z,1.50
2024-03-03T16:22:01.693Z,1.40
2024-03-03T16:24:28.716Z,1.10
2024-03-03T16:26:58.334Z,2.47
2024-03-03T16:29:27.836Z,1.23
2024-03-03T16:31:59.572Z,1.63
2024-03-03T16:34:29.024Z,2.27
2024-03-03T16:36:56.579Z,1.47
2024-03-03T16:39:23.446Z,4.00
2024-03-03T16:41:55.699Z,1.13
2024-03-03T16:44:24.817Z,1.80
2024-03-03T16:46:55.131Z,1.47
2024-03-03T16:49:30.313Z,1.93
2024-03-03T16:51:59.119Z,1.53
2024-03-03T16:54:29.454Z,1.33
2024-03-03T16:56:56.504Z,1.00
2024-03-03T16:59:25.625Z,1.77
2024-03-03T17:01:57.169Z,2.27
2024-03-03T17:04:26.956Z,4.00
2024-03-03T17:06:54.984Z,1.63
2024-03-03T17:09:24.247Z,1.50
2024-03-03T17:11:56.507Z,1.40
2024-03-03T17:14:27.390Z,3.23
2024-03-03T17:17:02.614Z,2.20
2024-03-03T17:19:34.323Z,2.57
2024-03-03T17:22:01.439Z,1.50
2024-03-03T17:24:34.380Z,1.73
2024-03-03T17:27:03.938Z,1.53
2024-03-03T17:29:33.174Z,2.80
2024-03-03T17:32:04.908Z,4.63
2024-03-03T17:34:31.864Z,1.43
2024-03-03T17:36:58.786Z,1.33
2024-03-03T17:39:26.118Z,2.63
2024-03-03T17:41:53.033Z,1.80
2024-03-03T17:44:20.269Z,2.20
2024-03-03T17:46:47.192Z,3.07
2024-03-03T17:49:14.193Z,1.97
2024-03-03T17:51:41.216Z,1.47
2024-03-03T17:54:13.060Z,2.60
2024-03-03T17:56:42.622Z,1.73
2024-03-03T17:59:09.581Z,2.27
2024-03-03T18:01:38.782Z,1.30
2024-03-03T18:04:05.938Z,3.30
2024-03-03T18:06:34.740Z,3.20
2024-03-03T18:09:04.276Z,2.83
2024-03-03T18:11:31.522Z,3.43
2024-03-03T18:13:59.949Z,2.27
2024-03-03T18:16:29.236Z,2.83
2024-03-03T18:18:56.818Z,2.63
2024-03-03T18:21:24.418Z,4.37
2024-03-03T18:23:51.719Z,2.70
2024-03-03T18:26:19.874Z,1.97
2024-03-03T18:28:49.380Z,2.80
2024-03-03T18:31:17.487Z,5.13
2024-03-03T18:33:44.762Z,2.60
2024-03-03T18:36:15.546Z,2.10
2024-03-03T18:38:42.644Z,2.60
2024-03-03T18:41:10.094Z,1.67
2024-03-03T18:43:38.294Z,2.43
2024-03-03T18:46:08.209Z,6.60
2024-03-03T18:48:35.187Z,3.90
2024-03-03T18:51:02.781Z,2.67
2024-03-03T18:53:29.947Z,2.90
2024-03-03T18:56:10.352Z,3.77
2024-03-03T18:58:38.824Z,1.90
2024-03-03T19:01:05.815Z,2.53
2024-03-03T19:03:34.874Z,5.83
2024-03-03T19:06:01.811Z,2.07
2024-03-03T19:08:28.641Z,3.63
2024-03-03T19:10:58.155Z,1.90
2024-03-03T19:13:25.278Z,2.37
2024-03-03T19:15:54.675Z,3.90
2024-03-03T19:18:21.819Z,3.07
2024-03-03T19:20:48.889Z,2.53
2024-03-03T19:23:18.636Z,4.27
2024-03-03T19:25:46.492Z,2.73
2024-03-03T19:28:13.432Z,6.70
2024-03-03T19:34:05.997Z,1.80
2024-03-03T19:36:39.073Z,2.53
2024-03-03T19:39:06.066Z,2.50
2024-03-03T19:41:32.989Z,3.00
2024-03-03T19:44:00.685Z,3.17
2024-03-03T19:46:27.753Z,2.60
2024-03-03T19:48:55.659Z,3.13
2024-03-03T19:51:22.699Z,2.33
2024-03-03T19:53:50.806Z,2.60
2024-03-03T19:56:17.800Z,3.00
2024-03-03T19:58:44.765Z,4.63
2024-03-03T20:01:11.975Z,2.50
2024-03-03T20:03:41.177Z,6.43
2024-03-03T20:06:10.444Z,2.87
2024-03-03T20:08:38.576Z,4.60
2024-03-03T20:11:08.384Z,4.10
2024-03-03T20:13:35.454Z,3.90
2024-03-03T20:16:02.394Z,3.03
2024-03-03T20:18:29.247Z,2.90
2024-03-03T20:21:00.023Z,4.77
2024-03-03T20:23:29.960Z,4.37
2024-03-03T20:25:59.291Z,2.87
2024-03-03T20:28:26.376Z,2.53
2024-03-03T20:30:53.447Z,1.93
2024-03-03T20:33:21.511Z,2.63
2024-03-03T20:35:50.435Z,5.07
2024-03-03T20:38:17.936Z,11.87
2024-03-03T20:40:49.582Z,8.43
2024-03-03T20:43:17.429Z,3.37
2024-03-03T20:45:44.696Z,7.00
2024-03-03T20:48:12.441Z,6.20
2024-03-03T20:50:39.440Z,7.40
2024-03-03T20:53:08.566Z,7.90
2024-03-03T20:55:35.577Z,10.40
2024-03-03T20:58:02.896Z,8.43
2024-03-03T21:00:29.802Z,5.03
2024-03-03T21:02:58.737Z,5.43
2024-03-03T21:05:26.561Z,4.43
2024-03-03T21:07:53.433Z,6.60
2024-03-03T21:10:23.284Z,6.60
2024-03-03T21:12:50.521Z,6.07
2024-03-03T21:15:17.657Z,2.43
2024-03-03T21:17:44.557Z,2.40
2024-03-03T21:20:14.637Z,1.63
2024-03-03T21:22:42.693Z,4.33
2024-03-03T21:25:11.191Z,3.50
2024-03-03T21:27:40.360Z,3.90
2024-03-03T21:30:08.274Z,4.07
2024-03-03T21:32:38.683Z,4.30
2024-03-03T21:35:08.513Z,2.50
2024-03-03T21:37:35.846Z,4.57
2024-03-03T21:40:02.950Z,3.20
2024-03-03T21:42:29.919Z,2.47
2024-03-03T21:44:57.032Z,2.43
2024-03-03T21:47:26.718Z,2.43
2024-03-03T21:49:56.109Z,4.30
2024-03-03T21:52:23.032Z,2.07
2024-03-03T21:54:50.053Z,5.20
2024-03-03T21:57:19.148Z,4.73
2024-03-03T21:59:46.081Z,4.03
2024-03-03T22:02:13.191Z,2.83
2024-03-03T22:04:40.295Z,2.90
2024-03-03T22:07:12.117Z,2.77
2024-03-03T22:09:39.274Z,4.70
2024-03-03T22:12:07.481Z,3.73
2024-03-03T22:14:36.097Z,2.43
2024-03-03T22:17:04.795Z,2.97
2024-03-03T22:19:31.833Z,8.53
2024-03-03T22:21:58.741Z,5.00
2024-03-03T22:24:25.635Z,3.13
2024-03-03T22:26:52.509Z,8.30
2024-03-03T22:29:19.429Z,2.47
2024-03-03T22:31:46.423Z,2.27
2024-03-03T22:34:14.219Z,1.87
2024-03-03T22:36:43.397Z,3.90
2024-03-03T22:39:10.248Z,4.47
2024-03-03T22:41:39.356Z,3.40
2024-03-03T22:44:06.253Z,3.27
2024-03-03T22:46:34.027Z,4.27
2024-03-03T22:49:03.961Z,3.03
2024-03-03T22:51:33.271Z,3.50
2024-03-03T22:54:00.351Z,4.40
2024-03-03T22:56:27.297Z,4.07
2024-03-03T22:58:54.379Z,3.03
2024-03-03T23:01:21.483Z,6.37
2024-03-03T23:03:48.390Z,2.37
2024-03-03T23:06:15.487Z,6.43
2024-03-03T23:08:42.338Z,5.43
2024-03-03T23:11:09.244Z,3.07
2024-03-03T23:13:38.425Z,4.20
2024-03-03T23:16:07.394Z,4.03
2024-03-03T23:18:34.376Z,8.30
2024-03-03T23:21:01.296Z,5.40
2024-03-03T23:23:28.179Z,3.33
2024-03-03T23:25:55.585Z,2.83
2024-03-03T23:28:22.575Z,3.90
2024-03-03T23:30:49.401Z,3.27
2024-03-03T23:33:18.578Z,4.20
2024-03-03T23:35:47.295Z,2.17
2024-03-03T23:38:14.178Z,4.13
2024-03-03T23:40:41.041Z,3.57
2024-03-03T23:43:07.939Z,5.47
2024-03-03T23:45:34.892Z,3.93
2024-03-03T23:48:01.808Z,4.73
2024-03-03T23:50:28.727Z,6.17
2024-03-03T23:52:58.103Z,2.77
2024-03-03T23:55:25.208Z,3.23
2024-03-03T23:57:52.094Z,4.90
